Time;durP1;ratioP1;P1;durP2;ratioP2;P2;SDS_P1;SDS_P2;PMS_P1;PMS_P2;Temp;Humidity;BMP_temperature;BMP_pressure;BME280_temperature;BME280_humidity;BME280_pressure;Samples;Min_cycle;Max_cycle;Signal;HPM_P1;HPM_P2
2021/09/07 05:00:32;;;;;;;5.85;5.30;;;;;;;14.76;74.55;95677.19;5939916;23;20107;-73
2021/09/07 05:02:57;;;;;;;5.97;4.68;;;;;;;17.29;66.21;95667.06;4922400;29;20114;-75
2021/09/07 05:05:22;;;;;;;4.30;3.72;;;;;;;15.40;71.01;95672.22;4923669;29;20049;-75
2021/09/07 05:07:48;;;;;;;5.65;4.00;;;;;;;17.77;65.24;95675.75;4920575;29;20485;-75
2021/09/07 05:10:13;;;;;;;5.45;3.90;;;;;;;19.51;58.60;95670.94;4923743;29;20515;-75
2021/09/07 05:12:39;;;;;;;4.70;4.32;;;;;;;17.22;66.92;95674.88;4937561;29;20028;-75
2021/09/07 05:15:06;;;;;;;26.75;4.40;;;;;;;20.67;55.14;95664.38;4921887;29;20031;-75
2021/09/07 05:17:31;;;;;;;7.97;3.78;;;;;;;20.26;56.64;95675.41;4937919;29;20102;-75
2021/09/07 05:19:56;;;;;;;6.50;3.90;;;;;;;21.73;52.13;95664.13;4922901;29;20024;-76
2021/09/07 05:22:22;;;;;;;4.63;3.40;;;;;;;19.42;59.03;95674.81;4921392;29;20031;-77
2021/09/07 05:24:48;;;;;;;6.20;4.00;;;;;;;18.00;65.37;95676.22;4935587;29;20115;-76
2021/09/07 05:27:13;;;;;;;4.57;4.03;;;;;;;22.22;51.81;95671.00;4918787;29;20028;-76
2021/09/07 05:29:39;;;;;;;5.05;3.95;;;;;;;19.99;58.14;95680.00;4934989;29;20035;-76
2021/09/07 05:32:04;;;;;;;4.47;3.97;;;;;;;23.31;50.16;95673.88;4905715;29;20031;-76
2021/09/07 05:34:30;;;;;;;10.30;6.07;;;;;;;24.38;46.83;95682.91;4922778;29;20027;-76
2021/09/07 05:36:56;;;;;;;3.40;3.10;;;;;;;24.84;46.07;95678.41;4925564;29;20023;-76
2021/09/07 05:39:24;;;;;;;3.83;3.53;;;;;;;23.87;47.78;95677.69;4908607;29;20031;-76
2021/09/07 05:41:51;;;;;;;5.00;4.10;;;;;;;24.80;46.00;95671.94;4933746;29;20062;-76
2021/09/07 05:44:16;;;;;;;3.28;3.08;;;;;;;24.70;46.53;95672.59;4932783;29;20102;-76
2021/09/07 05:46:41;;;;;;;5.22;3.17;;;;;;;24.91;45.58;95668.47;4915792;29;20561;-76
2021/09/07 05:49:07;;;;;;;6.28;3.00;;;;;;;25.05;45.95;95670.53;4932910;29;20035;-75
2021/09/07 05:51:32;;;;;;;4.15;3.85;;;;;;;25.74;44.47;95660.34;4915488;29;20032;-76
2021/09/07 05:53:58;;;;;;;4.28;3.47;;;;;;;23.94;47.45;95673.88;4915971;29;20019;-76
2021/09/07 05:56:23;;;;;;;7.15;3.67;;;;;;;25.59;44.99;95666.25;4914368;29;20027;-76
2021/09/07 05:58:49;;;;;;;4.75;3.95;;;;;;;21.93;52.59;95670.75;4902474;29;20039;-75
2021/09/07 06:01:14;;;;;;;5.95;4.00;;;;;;;20.92;57.14;95669.63;4920103;29;20055;-75
2021/09/07 06:03:40;;;;;;;7.50;4.30;;;;;;;19.02;63.33;95670.63;4926148;29;20051;-76
2021/09/07 06:06:05;;;;;;;6.13;4.18;;;;;;;20.19;59.90;95673.81;4931462;29;20044;-76
2021/09/07 06:08:31;;;;;;;5.63;4.45;;;;;;;20.30;60.35;95670.53;4944930;29;20035;-76
2021/09/07 06:10:56;;;;;;;4.25;3.85;;;;;;;19.96;61.09;95669.09;4931269;29;20564;-75
2021/09/07 06:13:22;;;;;;;4.72;4.25;;;;;;;19.38;63.32;95669.13;4930276;29;20035;-75
2021/09/07 06:15:48;;;;;;;4.93;3.63;;;;;;;20.20;63.07;95670.97;4932304;29;20032;-76
2021/09/07 06:18:14;;;;;;;4.00;2.78;;;;;;;21.33;59.42;95661.13;4930608;29;20032;-76
2021/09/07 06:20:39;;;;;;;3.58;3.22;;;;;;;20.77;59.34;95661.25;4930413;29;20441;-75
2021/09/07 06:23:05;;;;;;;4.28;3.25;;;;;;;19.36;63.05;95665.88;4915922;29;20024;-76
2021/09/07 06:25:30;;;;;;;3.63;3.33;;;;;;;21.83;57.24;95659.13;4899504;29;20019;-76
2021/09/07 06:27:56;;;;;;;3.88;2.85;;;;;;;24.34;50.47;95654.53;4932935;29;20036;-76
2021/09/07 06:30:21;;;;;;;6.10;4.13;;;;;;;24.23;46.45;95664.13;4946417;29;20422;-76
2021/09/07 06:32:48;;;;;;;4.97;4.32;;;;;;;27.89;39.91;95666.06;4947357;29;20099;-75
2021/09/07 06:35:13;;;;;;;3.58;2.90;;;;;;;26.26;40.89;95673.16;4931463;29;20126;-76
2021/09/07 06:37:39;;;;;;;3.08;2.78;;;;;;;26.73;40.11;95666.94;4932200;29;20031;-75
2021/09/07 06:40:05;;;;;;;2.90;2.70;;;;;;;27.13;36.95;95660.34;4932421;29;20571;-76
2021/09/07 06:42:31;;;;;;;3.22;2.92;;;;;;;27.66;36.87;95662.78;4913882;29;20049;-75
2021/09/07 06:44:56;;;;;;;4.28;3.00;;;;;;;28.09;36.70;95668.81;4914088;29;20486;-75
2021/09/07 06:47:22;;;;;;;5.50;2.97;;;;;;;26.72;39.04;95657.34;4929052;29;20050;-75
2021/09/07 06:49:48;;;;;;;19.05;4.03;;;;;;;27.83;35.89;95667.09;4908058;29;20027;-73
2021/09/07 06:52:13;;;;;;;5.90;2.55;;;;;;;27.03;36.74;95662.94;4933278;28;20436;-74
2021/09/07 06:54:38;;;;;;;3.70;3.40;;;;;;;25.09;39.18;95666.34;4933317;29;20024;-76
2021/09/07 06:57:04;;;;;;;9.65;3.67;;;;;;;26.83;36.90;95668.09;4926052;29;20609;-74
2021/09/07 06:59:30;;;;;;;3.83;3.22;;;;;;;26.60;36.31;95663.88;4941687;28;20107;-75
2021/09/07 07:01:55;;;;;;;3.17;2.90;;;;;;;26.38;38.36;95658.66;4939558;29;20074;-74
2021/09/07 07:04:20;;;;;;;4.63;3.33;;;;;;;22.68;46.61;95672.97;4915512;29;20032;-74
2021/09/07 07:06:46;;;;;;;5.00;3.70;;;;;;;20.43;49.65;95668.63;4932472;29;20039;-75
2021/09/07 07:09:11;;;;;;;4.57;2.65;;;;;;;19.87;52.41;95679.03;4930172;29;20031;-75
2021/09/07 07:11:37;;;;;;;3.22;2.80;;;;;;;18.73;54.78;95669.22;4931887;29;20481;-76
2021/09/07 07:14:02;;;;;;;3.22;2.42;;;;;;;20.21;52.87;95669.94;4928797;29;20035;-76
2021/09/07 07:16:28;;;;;;;3.38;3.08;;;;;;;19.05;52.96;95675.44;4931527;29;20035;-76
2021/09/07 07:18:53;;;;;;;4.63;2.53;;;;;;;18.80;54.25;95662.97;4930239;29;20039;-74
2021/09/07 07:21:19;;;;;;;5.00;1.95;;;;;;;19.28;54.22;95668.75;4930536;29;20477;-73
2021/09/07 07:23:44;;;;;;;2.85;2.20;;;;;;;20.91;51.27;95668.81;4899561;29;20123;-74
2021/09/07 07:26:10;;;;;;;3.88;2.55;;;;;;;20.05;52.15;95678.34;4913805;29;20055;-74
2021/09/07 07:28:35;;;;;;;5.18;2.42;;;;;;;19.70;53.65;95679.75;4931263;29;20058;-72
2021/09/07 07:31:01;;;;;;;6.50;5.05;;;;;;;19.59;53.83;95675.94;4913588;29;20039;-71
2021/09/07 07:33:26;;;;;;;3.65;2.70;;;;;;;18.42;55.23;95675.06;4899363;29;20031;-72
2021/09/07 07:35:51;;;;;;;3.60;2.80;;;;;;;17.82;56.15;95682.00;4929504;29;20035;-78
2021/09/07 07:38:17;;;;;;;5.05;2.10;;;;;;;19.23;55.57;95681.66;4930779;29;20032;-74
2021/09/07 07:40:44;;;;;;;2.83;2.42;;;;;;;19.15;57.00;95691.59;4931656;29;20036;-74
2021/09/07 07:43:10;;;;;;;6.03;3.05;;;;;;;18.15;58.98;95683.91;4929888;29;20072;-73
2021/09/07 07:45:36;;;;;;;4.70;2.20;;;;;;;19.57;56.38;95683.22;4915019;29;20031;-74
2021/09/07 07:48:01;;;;;;;5.60;2.75;;;;;;;19.36;54.71;95679.00;4929131;29;20031;-75
2021/09/07 07:50:29;;;;;;;2.78;2.58;;;;;;;18.56;57.01;95683.78;4914787;29;20036;-74
2021/09/07 07:52:54;;;;;;;6.30;2.20;;;;;;;19.52;56.06;95683.06;4944832;29;20042;-74
2021/09/07 07:55:20;;;;;;;4.45;2.60;;;;;;;18.36;55.72;95675.88;4930447;29;20067;-75
2021/09/07 07:57:45;;;;;;;2.83;2.25;;;;;;;19.07;54.58;95686.56;4945252;28;20032;-74
2021/09/07 08:00:11;;;;;;;2.67;2.35;;;;;;;19.89;51.53;95681.47;4930045;29;20035;-74
2021/09/07 08:02:38;;;;;;;4.10;2.28;;;;;;;20.18;50.08;95686.16;4929712;29;20059;-74
2021/09/07 08:05:04;;;;;;;3.97;2.47;;;;;;;20.24;48.77;95682.69;4929117;29;20036;-74
2021/09/07 08:07:29;;;;;;;4.20;2.50;;;;;;;20.22;48.52;95684.72;4932717;29;20058;-73
2021/09/07 08:09:55;;;;;;;2.53;2.10;;;;;;;20.02;49.70;95680.59;4936867;29;20031;-74
2021/09/07 08:12:22;;;;;;;3.13;2.38;;;;;;;19.72;52.46;95685.59;4921798;29;20038;-75
2021/09/07 08:14:47;;;;;;;5.07;2.50;;;;;;;19.12;52.08;95690.19;4945798;28;20023;-76
2021/09/07 08:17:13;;;;;;;4.85;2.13;;;;;;;20.32;50.06;95679.84;4921175;29;20426;-74
2021/09/07 08:19:39;;;;;;;2.78;2.38;;;;;;;20.12;48.15;95675.69;4923676;29;20047;-74
2021/09/07 08:22:04;;;;;;;2.75;2.55;;;;;;;20.27;46.20;95666.50;4938681;29;20019;-74
2021/09/07 08:24:30;;;;;;;2.88;1.88;;;;;;;21.02;44.59;95662.84;4941078;29;20034;-76
2021/09/07 08:26:55;;;;;;;2.75;2.30;;;;;;;20.97;46.30;95667.94;4953180;28;20027;-75
2021/09/07 08:29:20;;;;;;;6.00;2.30;;;;;;;21.34;45.96;95678.56;4937825;29;20090;-74
2021/09/07 08:31:46;;;;;;;7.38;2.42;;;;;;;21.63;44.58;95677.03;4938851;29;20034;-75
2021/09/07 08:34:11;;;;;;;3.58;2.30;;;;;;;20.81;45.79;95676.41;4943767;29;20078;-74
2021/09/07 08:36:37;;;;;;;2.60;2.33;;;;;;;21.35;46.44;95670.41;4944425;28;20031;-75
2021/09/07 08:39:04;;;;;;;2.15;1.88;;;;;;;20.42;45.68;95677.53;4942342;28;20031;-74
2021/09/07 08:41:29;;;;;;;3.83;2.22;;;;;;;19.99;45.95;95674.75;4928734;29;20028;-74
2021/09/07 08:43:55;;;;;;;3.53;2.80;;;;;;;20.32;44.75;95674.56;4928114;29;20028;-74
2021/09/07 08:46:20;;;;;;;3.92;2.30;;;;;;;20.68;45.07;95662.56;4929149;29;20032;-74
2021/09/07 08:48:46;;;;;;;2.15;1.95;;;;;;;20.70;44.68;95661.31;4929634;29;20083;-74
2021/09/07 08:51:15;;;;;;;2.22;1.92;;;;;;;21.32;43.66;95662.19;4914061;29;20035;-74
2021/09/07 08:53:40;;;;;;;2.30;1.90;;;;;;;20.70;45.06;95663.94;4929521;29;20106;-74
2021/09/07 08:56:08;;;;;;;5.18;2.08;;;;;;;20.35;45.58;95661.00;4931191;29;20079;-74
2021/09/07 08:58:34;;;;;;;5.28;1.98;;;;;;;20.46;44.58;95662.91;4928853;29;20071;-75
2021/09/07 09:01:09;;;;;;;4.30;1.83;;;;;;;19.79;47.44;95662.69;4929690;29;20058;-74
2021/09/07 09:03:34;;;;;;;3.05;2.20;;;;;;;20.39;45.66;95656.06;4929660;29;20078;-75
2021/09/07 09:06:00;;;;;;;2.83;1.70;;;;;;;21.20;44.24;95651.53;4928308;29;20027;-75
2021/09/07 09:08:25;;;;;;;7.05;2.22;;;;;;;21.76;43.60;95651.28;4929357;29;20433;-74
2021/09/07 09:11:02;;;;;;;3.75;2.00;;;;;;;22.69;41.98;95648.97;4899180;29;20036;-74
2021/09/07 09:13:28;;;;;;;3.40;2.40;;;;;;;21.53;43.13;95641.44;4902177;29;20418;-73
2021/09/07 09:16:04;;;;;;;2.58;2.28;;;;;;;20.98;42.69;95647.69;4901185;29;20042;-75
2021/09/07 09:18:37;;;;;;;2.92;2.15;;;;;;;21.22;43.63;95638.16;4916438;29;20123;-73
2021/09/07 09:21:22;;;;;;;2.33;1.83;;;;;;;21.39;42.70;95642.59;4902342;29;20063;-80
2021/09/07 09:24:18;;;;;;;2.88;2.58;;;;;;;20.12;44.97;95638.84;4915977;29;20058;-74
2021/09/07 09:26:57;;;;;;;4.03;2.58;;;;;;;20.27;45.33;95637.56;4910604;29;20047;-75
2021/09/07 09:29:24;;;;;;;;;;;;;;;20.41;44.31;95630.38;4902430;29;20402;-74
2021/09/07 09:31:59;;;;;;;2.30;1.95;;;;;;;21.23;43.18;95629.19;4921865;29;19919;-74
2021/09/07 09:34:25;;;;;;;5.22;1.77;;;;;;;21.59;43.65;95628.38;4948696;29;20500;-76
2021/09/07 09:37:09;;;;;;;4.28;2.40;;;;;;;21.46;43.05;95624.06;4932180;29;20027;-73
2021/09/07 09:39:44;;;;;;;2.95;2.03;;;;;;;21.87;44.80;95612.78;4915346;29;20073;-75
2021/09/07 09:42:14;;;;;;;3.63;2.10;;;;;;;21.50;42.33;95628.69;4932619;29;20036;-74
2021/09/07 09:44:39;;;;;;;5.22;2.38;;;;;;;21.12;43.58;95624.69;4914426;29;20031;-73
2021/09/07 09:47:05;;;;;;;3.05;2.47;;;;;;;20.68;42.67;95620.44;4933137;29;20035;-74
2021/09/07 09:49:30;;;;;;;11.27;2.75;;;;;;;21.54;42.73;95621.16;4931331;29;20023;-74
2021/09/07 09:52:05;;;;;;;2.65;1.88;;;;;;;22.00;42.73;95620.53;4932704;29;20028;-75
2021/09/07 09:54:31;;;;;;;3.55;1.98;;;;;;;21.24;42.35;95623.72;4916021;29;20031;-73
2021/09/07 09:57:00;;;;;;;3.53;2.25;;;;;;;21.36;42.92;95624.59;4931941;29;20120;-74
2021/09/07 09:59:27;;;;;;;3.65;1.85;;;;;;;21.71;41.82;95621.31;4932697;29;20027;-74
2021/09/07 10:01:54;;;;;;;2.72;1.88;;;;;;;21.73;42.17;95627.19;4931894;29;20050;-74
2021/09/07 10:04:20;;;;;;;1.75;1.63;;;;;;;22.38;41.87;95625.47;4932239;29;20032;-74
2021/09/07 10:06:50;;;;;;;3.85;2.47;;;;;;;21.75;41.06;95619.84;4914417;29;20028;-77
2021/09/07 10:09:17;;;;;;;4.07;2.45;;;;;;;21.69;42.13;95613.63;4915579;29;20091;-74
2021/09/07 10:11:42;;;;;;;2.15;1.90;;;;;;;21.86;42.20;95614.63;4914762;29;20023;-74
2021/09/07 10:14:08;;;;;;;3.53;1.95;;;;;;;22.37;42.13;95618.59;4914240;29;20434;-74
2021/09/07 10:16:50;;;;;;;4.13;1.92;;;;;;;21.28;42.37;95616.19;4911240;29;20035;-75
2021/09/07 10:19:43;;;;;;;4.88;2.38;;;;;;;21.57;41.44;95609.34;4915782;29;20079;-75
2021/09/07 10:24:54;;;;;;;3.28;2.67;;;;;;;21.43;40.63;95613.97;4929874;29;20043;-74
2021/09/07 10:27:19;;;;;;;4.13;2.03;;;;;;;22.08;41.55;95611.50;4913299;29;20431;-74
2021/09/07 10:29:45;;;;;;;2.35;2.15;;;;;;;21.74;41.22;95599.78;4930173;29;20046;-75
2021/09/07 10:32:22;;;;;;;2.97;1.55;;;;;;;21.88;41.67;95606.47;4930676;29;20035;-74
2021/09/07 10:35:10;;;;;;;2.40;1.83;;;;;;;21.41;42.54;95597.59;4914561;29;20042;-74
2021/09/07 10:38:06;;;;;;;2.40;2.00;;;;;;;21.38;42.28;95596.16;4914176;29;20027;-78
2021/09/07 10:40:42;;;;;;;3.55;2.50;;;;;;;20.60;43.14;95587.28;4914500;29;20044;-78
2021/09/07 10:43:08;;;;;;;3.83;2.30;;;;;;;21.25;40.66;95595.53;4914086;29;20036;-76
2021/09/07 10:45:35;;;;;;;5.15;2.00;;;;;;;21.41;41.40;95606.31;4913844;29;20042;-75
2021/09/07 10:48:24;;;;;;;2.33;1.58;;;;;;;21.36;40.67;95598.22;4914198;29;20066;-74
2021/09/07 10:50:59;;;;;;;3.97;1.98;;;;;;;21.43;39.40;95595.53;4916510;29;20039;-75
2021/09/07 10:53:25;;;;;;;4.22;1.88;;;;;;;21.67;39.11;95596.44;4914020;29;20408;-74
2021/09/07 10:55:50;;;;;;;2.80;1.70;;;;;;;22.22;40.09;95582.03;4929275;29;20095;-73
2021/09/07 10:58:33;;;;;;;3.58;1.98;;;;;;;21.77;37.97;95594.84;4931465;29;20039;-76
2021/09/07 11:01:44;;;;;;;1.95;1.55;;;;;;;21.47;40.13;95588.78;4930024;29;20058;-74
2021/09/07 11:04:31;;;;;;;6.05;2.05;;;;;;;22.08;39.64;95593.03;4946721;28;20043;-74
2021/09/07 11:06:58;;;;;;;2.28;2.08;;;;;;;21.67;39.87;95588.53;4933958;29;20028;-75
2021/09/07 11:09:48;;;;;;;1.75;1.60;;;;;;;21.77;38.03;95589.56;4927245;29;20047;-74
2021/09/07 11:12:28;;;;;;;3.30;1.75;;;;;;;21.94;37.73;95580.03;4935023;29;20111;-77
2021/09/07 11:15:09;;;;;;;;;;;;;;;21.49;37.01;95571.72;4921919;29;20036;-74
2021/09/07 11:17:35;;;;;;;2.10;1.90;;;;;;;22.12;37.11;95583.66;4949876;28;19919;-74
2021/09/07 11:20:06;;;;;;;4.80;1.58;;;;;;;21.93;39.44;95583.69;4953079;28;20027;-74
2021/09/07 11:22:32;;;;;;;2.25;2.05;;;;;;;21.95;38.05;95575.56;4936278;29;20397;-74
2021/09/07 11:25:08;;;;;;;3.60;1.83;;;;;;;22.30;38.56;95573.81;4921763;29;20028;-74
2021/09/07 11:27:50;;;;;;;4.30;2.17;;;;;;;21.37;39.53;95562.94;4938419;29;20028;-75
2021/09/07 11:30:48;;;;;;;5.45;1.83;;;;;;;22.33;37.95;95567.25;4954672;28;20023;-74
2021/09/07 11:33:14;;;;;;;5.40;1.90;;;;;;;21.64;37.76;95568.66;4944668;28;20488;-73
2021/09/07 11:35:48;;;;;;;2.33;2.00;;;;;;;22.00;35.73;95559.84;4940519;29;20040;-75
2021/09/07 11:38:15;;;;;;;2.63;1.55;;;;;;;22.14;36.32;95552.53;4931125;28;20147;-75
2021/09/07 11:40:48;;;;;;;4.90;1.92;;;;;;;22.12;34.84;95544.88;4928938;29;20031;-75
2021/09/07 11:43:15;;;;;;;2.42;2.22;;;;;;;22.40;35.31;95558.19;4911593;29;20190;-76
2021/09/07 11:45:41;;;;;;;4.65;1.50;;;;;;;22.00;35.04;95555.38;4895464;29;20059;-75
2021/09/07 11:48:07;;;;;;;4.60;1.60;;;;;;;21.96;35.34;95548.16;4928192;29;20155;-75
2021/09/07 11:50:42;;;;;;;6.15;2.33;;;;;;;21.98;34.71;95539.00;4911805;29;20030;-80
2021/09/07 11:53:10;;;;;;;3.38;3.03;;;;;;;22.52;34.96;95561.66;4912871;29;20044;-76
2021/09/07 11:55:48;;;;;;;1.80;1.70;;;;;;;22.06;34.29;95538.63;4895989;29;20063;-74
2021/09/07 11:58:36;;;;;;;2.50;1.42;;;;;;;22.43;35.14;95552.47;4929223;29;20031;-74
2021/09/07 12:01:03;;;;;;;2.90;1.77;;;;;;;22.13;35.76;95553.56;4938476;29;20083;-74
2021/09/07 12:03:40;;;;;;;3.42;1.60;;;;;;;22.03;35.41;95548.84;4937571;29;20040;-74
2021/09/07 12:06:06;;;;;;;2.97;1.77;;;;;;;21.94;34.69;95543.09;4932285;29;20023;-77
2021/09/07 12:08:39;;;;;;;3.05;1.83;;;;;;;22.02;34.50;95534.06;4904855;29;20024;-74
2021/09/07 12:11:06;;;;;;;4.22;1.90;;;;;;;22.69;35.96;95539.84;4934000;29;20031;-75
2021/09/07 12:13:32;;;;;;;2.63;2.00;;;;;;;22.07;34.81;95518.34;4918241;29;20577;-74
2021/09/07 12:15:58;;;;;;;2.50;2.17;;;;;;;21.94;36.02;95519.34;4922110;29;20031;-76
2021/09/07 12:18:36;;;;;;;1.77;1.50;;;;;;;22.47;36.77;95529.84;4917330;29;20031;-74
2021/09/07 12:21:08;;;;;;;4.50;1.85;;;;;;;22.48;35.86;95528.81;4927703;29;20119;-75
2021/09/07 12:23:36;;;;;;;2.30;1.88;;;;;;;21.91;36.52;95527.72;4912489;29;20052;-74
2021/09/07 12:26:02;;;;;;;2.45;1.60;;;;;;;21.77;35.93;95525.50;4896826;29;20409;-74
2021/09/07 12:28:28;;;;;;;2.10;1.90;;;;;;;21.90;35.80;95507.63;4928593;29;20565;-75
2021/09/07 12:31:16;;;;;;;2.13;1.92;;;;;;;22.12;36.38;95518.47;4896472;29;20038;-75
2021/09/07 12:33:49;;;;;;;2.10;1.80;;;;;;;22.16;37.14;95508.25;4908972;29;20473;-74
2021/09/07 12:36:16;;;;;;;1.70;1.50;;;;;;;22.42;36.00;95519.16;4912018;29;20118;-73
2021/09/07 12:38:42;;;;;;;6.55;1.77;;;;;;;22.25;36.59;95506.91;4912070;29;20877;-74
2021/09/07 12:41:12;;;;;;;2.80;1.90;;;;;;;21.88;37.30;95517.59;4920656;29;20110;-74
2021/09/07 12:43:42;;;;;;;2.25;1.83;;;;;;;22.35;36.73;95512.38;4914244;29;20031;-74
2021/09/07 12:46:10;;;;;;;3.33;2.00;;;;;;;22.22;36.45;95508.13;4924899;29;20058;-75
2021/09/07 12:48:37;;;;;;;3.35;1.88;;;;;;;21.80;37.59;95519.78;4930886;29;20023;-75
2021/09/07 12:51:03;;;;;;;2.15;1.60;;;;;;;21.53;38.19;95514.88;4930456;29;20047;-75
2021/09/07 12:53:34;;;;;;;5.10;1.95;;;;;;;21.83;37.34;95503.50;4947977;29;20053;-78
2021/09/07 12:56:00;;;;;;;3.38;1.73;;;;;;;21.78;37.98;95503.34;4905211;29;20032;-75
2021/09/07 12:58:26;;;;;;;2.83;2.08;;;;;;;21.92;37.78;95499.50;4894404;29;20027;-74
2021/09/07 13:00:52;;;;;;;2.10;1.60;;;;;;;22.12;37.24;95496.56;4927250;29;20035;-73
2021/09/07 13:03:17;;;;;;;4.60;2.15;;;;;;;22.22;37.17;95486.25;4927641;29;20047;-76
2021/09/07 13:05:43;;;;;;;9.57;2.50;;;;;;;22.15;37.38;95483.72;4927150;29;20032;-74
2021/09/07 13:08:10;;;;;;;2.83;2.10;;;;;;;21.91;37.47;95484.69;4926901;29;20019;-73
2021/09/07 13:10:35;;;;;;;1.98;1.77;;;;;;;22.07;37.13;95494.59;4927148;29;20040;-73
2021/09/07 13:13:00;;;;;;;4.18;1.20;;;;;;;22.12;37.10;95481.53;4911153;29;20036;-73
2021/09/07 13:15:26;;;;;;;3.28;1.70;;;;;;;21.86;37.28;95481.94;4911367;29;20032;-74
2021/09/07 13:17:52;;;;;;;4.88;1.60;;;;;;;21.78;38.49;95474.34;4911929;29;20410;-73
2021/09/07 13:20:17;;;;;;;5.75;1.70;;;;;;;21.36;38.90;95479.63;4928172;29;20036;-74
2021/09/07 13:22:43;;;;;;;3.17;1.40;;;;;;;21.88;38.44;95474.56;4911849;29;20039;-75
2021/09/07 13:25:09;;;;;;;3.00;1.55;;;;;;;21.74;38.72;95467.91;4928317;29;20699;-74
2021/09/07 13:27:34;;;;;;;1.48;1.15;;;;;;;21.77;38.02;95473.53;4911233;29;20441;-74
2021/09/07 13:30:00;;;;;;;1.88;1.40;;;;;;;22.06;37.32;95466.59;4928407;29;20489;-73
2021/09/07 13:32:25;;;;;;;1.80;1.60;;;;;;;22.03;37.93;95480.25;4911667;29;20067;-74
2021/09/07 13:34:51;;;;;;;2.08;1.40;;;;;;;22.24;37.85;95470.97;4927854;29;20083;-73
2021/09/07 13:37:16;;;;;;;1.38;1.00;;;;;;;21.82;37.54;95478.13;4928953;29;20024;-75
2021/09/07 13:39:42;;;;;;;2.92;1.65;;;;;;;21.85;37.69;95465.28;4927286;29;20031;-73
2021/09/07 13:42:07;;;;;;;2.50;1.55;;;;;;;22.10;37.01;95467.75;4926979;29;20035;-75
2021/09/07 13:44:33;;;;;;;3.28;1.23;;;;;;;21.85;37.16;95465.28;4928191;29;20091;-74
2021/09/07 13:46:58;;;;;;;1.38;1.20;;;;;;;21.94;37.38;95457.88;4927669;29;20083;-75
2021/09/07 13:49:24;;;;;;;6.03;1.60;;;;;;;22.37;37.39;95463.63;4905671;29;20039;-74
2021/09/07 13:51:50;;;;;;;1.65;1.33;;;;;;;21.96;37.54;95456.59;4925392;29;20063;-74
2021/09/07 13:54:16;;;;;;;2.17;1.42;;;;;;;21.99;38.37;95458.00;4928310;29;20032;-74
2021/09/07 13:56:41;;;;;;;2.28;1.20;;;;;;;22.11;39.21;95453.53;4914034;29;20036;-75
2021/09/07 13:59:07;;;;;;;4.28;1.60;;;;;;;21.82;36.73;95459.66;4935578;29;20027;-75
2021/09/07 14:01:32;;;;;;;1.52;1.10;;;;;;;21.98;37.70;95459.03;4928687;29;20051;-74
2021/09/07 14:03:57;;;;;;;1.90;1.17;;;;;;;21.90;37.58;95446.97;4939300;28;20039;-75
2021/09/07 14:06:23;;;;;;;3.28;1.30;;;;;;;21.96;38.33;95458.47;4937148;29;20016;-74
2021/09/07 14:08:48;;;;;;;3.67;1.15;;;;;;;21.70;39.05;95443.03;4939126;29;20027;-73
2021/09/07 14:11:15;;;;;;;3.42;1.48;;;;;;;21.85;37.69;95444.19;4956223;28;20035;-76
2021/09/07 14:13:41;;;;;;;2.67;1.60;;;;;;;21.58;38.53;95435.06;4937117;29;20885;-75
2021/09/07 14:16:06;;;;;;;2.60;1.52;;;;;;;21.20;39.40;95448.63;4938974;29;20031;-74
2021/09/07 14:18:31;;;;;;;3.42;1.10;;;;;;;20.91;40.16;95436.22;4950203;28;20651;-75
2021/09/07 14:20:57;;;;;;;1.30;1.10;;;;;;;20.82;40.23;95442.81;4931724;29;20132;-74
2021/09/07 14:23:24;;;;;;;1.88;1.38;;;;;;;20.62;40.45;95443.06;4930109;29;20433;-77
2021/09/07 14:25:49;;;;;;;1.95;1.83;;;;;;;20.57;40.88;95432.41;4929805;29;20024;-77
2021/09/07 14:28:15;;;;;;;2.33;1.48;;;;;;;20.66;39.87;95438.97;4914480;29;20034;-80
2021/09/07 14:30:40;;;;;;;1.52;1.20;;;;;;;20.69;40.25;95435.88;4929047;29;20040;-74
2021/09/07 14:33:06;;;;;;;1.58;1.30;;;;;;;20.65;40.88;95442.63;4930681;29;20110;-75
2021/09/07 14:35:31;;;;;;;2.35;1.40;;;;;;;20.57;41.36;95434.22;4929507;29;20036;-76
2021/09/07 14:37:57;;;;;;;4.60;1.25;;;;;;;20.33;41.57;95439.34;4952492;28;20035;-73
2021/09/07 14:40:22;;;;;;;6.13;1.50;;;;;;;20.15;42.09;95436.66;4929662;29;20020;-73
2021/09/07 14:42:48;;;;;;;4.38;1.90;;;;;;;20.09;42.45;95436.72;4962895;28;20038;-74
2021/09/07 14:45:13;;;;;;;2.70;1.08;;;;;;;19.95;43.88;95441.31;4939201;29;20085;-73
2021/09/07 14:47:39;;;;;;;1.95;1.52;;;;;;;19.82;43.76;95439.59;4937809;29;20062;-73
2021/09/07 14:50:06;;;;;;;2.95;1.20;;;;;;;19.95;44.31;95436.84;4936860;29;20036;-73
2021/09/07 14:52:32;;;;;;;8.55;1.25;;;;;;;19.86;44.34;95446.03;4933460;29;20031;-74
2021/09/07 14:54:57;;;;;;;2.28;1.08;;;;;;;20.00;43.08;95446.75;4944707;29;20020;-75
2021/09/07 14:57:22;;;;;;;1.52;1.40;;;;;;;19.95;42.60;95439.47;4929505;29;20028;-74
2021/09/07 14:59:48;;;;;;;2.20;1.17;;;;;;;19.94;43.62;95444.94;4945242;29;20036;-73
2021/09/07 15:02:13;;;;;;;1.77;1.15;;;;;;;19.91;43.83;95440.13;4929499;29;20048;-74
2021/09/07 15:04:40;;;;;;;2.47;1.48;;;;;;;19.81;43.64;95442.47;4927981;29;20034;-79
2021/09/07 15:07:06;;;;;;;3.88;1.13;;;;;;;20.03;44.16;95441.03;4927226;29;20020;-73
2021/09/07 15:09:31;;;;;;;2.42;1.00;;;;;;;20.02;43.96;95442.06;4913454;29;20524;-73
2021/09/07 15:11:56;;;;;;;4.85;1.10;;;;;;;19.99;44.14;95448.56;4929876;29;20031;-73
2021/09/07 15:14:22;;;;;;;2.33;1.70;;;;;;;19.92;44.09;95441.75;4930560;29;20020;-81
2021/09/07 15:16:47;;;;;;;6.30;1.30;;;;;;;20.01;44.13;95448.31;4929545;29;20035;-73
2021/09/07 15:19:13;;;;;;;3.65;1.17;;;;;;;20.00;44.48;95438.84;4929322;29;20032;-72
2021/09/07 15:21:38;;;;;;;2.92;1.13;;;;;;;20.04;44.91;95444.44;4929193;29;20032;-73
2021/09/07 15:24:04;;;;;;;2.55;0.90;;;;;;;20.23;45.24;95454.78;4931126;29;20438;-73
2021/09/07 15:26:30;;;;;;;3.15;1.45;;;;;;;20.02;44.62;95443.88;4928828;29;20036;-74
2021/09/07 15:29:00;;;;;;;11.18;1.58;;;;;;;19.87;44.92;95441.59;4930635;29;20028;-74
2021/09/07 15:31:25;;;;;;;1.98;1.00;;;;;;;19.78;44.94;95440.22;4928800;29;20031;-73
2021/09/07 15:33:51;;;;;;;1.90;0.90;;;;;;;19.63;46.27;95445.81;4945457;29;20055;-73
2021/09/07 15:36:16;;;;;;;4.88;1.27;;;;;;;19.51;46.50;95446.72;4930177;29;20038;-74
2021/09/07 15:38:42;;;;;;;1.50;1.13;;;;;;;19.44;47.08;95446.78;4913198;29;20027;-74
2021/09/07 15:41:07;;;;;;;4.55;1.20;;;;;;;19.30;47.36;95451.28;4930355;29;20020;-73
2021/09/07 15:43:33;;;;;;;2.95;1.55;;;;;;;19.21;47.45;95457.81;4944561;29;20032;-75
2021/09/07 15:46:00;;;;;;;2.10;1.35;;;;;;;19.18;47.63;95455.59;4928921;29;20047;-77
2021/09/07 15:48:25;;;;;;;3.60;1.33;;;;;;;19.11;48.14;95446.16;4927941;29;20527;-73
2021/09/07 15:50:51;;;;;;;5.80;1.20;;;;;;;19.13;48.09;95446.75;4930424;29;20111;-74
2021/09/07 15:53:16;;;;;;;3.70;1.05;;;;;;;18.97;48.29;95449.88;4928506;29;20045;-74
2021/09/07 15:55:42;;;;;;;2.90;1.10;;;;;;;18.98;48.00;95441.78;4928968;29;20067;-74
2021/09/07 15:58:07;;;;;;;1.40;0.70;;;;;;;18.91;47.84;95447.06;4928431;29;20390;-73
2021/09/07 16:00:32;;;;;;;1.98;0.95;;;;;;;18.82;48.48;95444.88;4929834;29;20418;-74
2021/09/07 16:02:59;;;;;;;2.70;0.90;;;;;;;18.75;49.05;95444.13;4929960;29;20040;-74
2021/09/07 16:05:25;;;;;;;3.00;1.00;;;;;;;18.70;49.39;95451.81;4912215;29;20425;-73
2021/09/07 16:07:51;;;;;;;0.85;0.75;;;;;;;18.58;49.97;95446.41;4930139;29;20407;-73
2021/09/07 16:10:16;;;;;;;1.70;1.35;;;;;;;18.44;49.83;95436.94;4928598;29;20032;-73
2021/09/07 16:12:42;;;;;;;3.00;0.95;;;;;;;18.42;50.68;95438.97;4881728;29;20458;-73
2021/09/07 16:15:07;;;;;;;9.18;1.55;;;;;;;18.44;50.07;95435.13;4896724;29;20095;-73
2021/09/07 16:17:33;;;;;;;2.05;1.00;;;;;;;18.38;50.09;95435.94;4912512;29;20032;-73
2021/09/07 16:19:58;;;;;;;2.10;1.55;;;;;;;18.31;50.63;95418.63;4929625;29;20036;-73
2021/09/07 16:22:24;;;;;;;2.85;1.20;;;;;;;18.19;51.52;95428.94;4904010;29;20071;-74
2021/09/07 16:24:50;;;;;;;2.33;1.20;;;;;;;18.12;51.33;95425.53;4929382;29;20030;-74
2021/09/07 16:27:15;;;;;;;4.45;1.52;;;;;;;18.05;52.30;95422.09;4909658;29;20171;-73
2021/09/07 16:29:41;;;;;;;3.13;0.90;;;;;;;17.98;52.57;95428.41;4901812;29;20064;-73
2021/09/07 16:32:07;;;;;;;1.60;1.00;;;;;;;17.88;52.78;95426.97;4894650;29;20032;-73
2021/09/07 16:34:33;;;;;;;3.50;1.20;;;;;;;17.77;53.84;95418.94;4920981;29;20413;-73
2021/09/07 16:36:59;;;;;;;1.42;1.02;;;;;;;17.67;54.66;95421.97;4922904;29;20117;-73
2021/09/07 16:39:24;;;;;;;2.22;1.00;;;;;;;17.60;54.16;95430.81;4930040;29;20476;-73